Time;durP1;ratioP1;P1;durP2;ratioP2;P2;SDS_P1;SDS_P2;PMS_P1;PMS_P2;Temp;Humidity;BMP_temperature;BMP_pressure;BME280_temperature;BME280_humidity;BME280_pressure;Samples;Min_cycle;Max_cycle;Signal;HPM_P1;HPM_P2
2023/05/25 00:00:19;;;;;;;9.47;3.20;;;;;;;13.64;51.21;99651.91;7442127;39;20419;31
2023/05/25 00:05:56;;;;;;;7.05;3.50;;;;;;;13.67;51.66;99646.12;7474298;38;20301;31
2023/05/25 00:11:18;;;;;;;8.43;3.23;;;;;;;13.69;51.94;99649.50;7555359;38;20334;31
2023/05/25 00:16:39;;;;;;;6.40;3.30;;;;;;;13.60;51.99;99642.44;7463089;39;20256;31
2023/05/25 00:22:13;;;;;;;8.93;3.60;;;;;;;13.46;51.98;99644.00;7485204;38;20342;31
2023/05/25 00:27:34;;;;;;;10.30;3.70;;;;;;;13.50;52.12;99643.47;7483717;38;20261;31
2023/05/25 00:33:09;;;;;;;7.60;3.10;;;;;;;13.53;52.24;99637.69;7447682;39;20278;31
2023/05/25 00:43:49;;;;;;;10.90;3.45;;;;;;;13.38;52.61;99639.44;7463444;39;20265;31
2023/05/25 00:49:24;;;;;;;9.47;3.43;;;;;;;13.32;51.71;99642.84;7489057;38;20229;31
2023/05/25 00:55:00;;;;;;;9.03;3.20;;;;;;;13.21;51.88;99637.78;7462709;39;20234;31
2023/05/25 01:00:37;;;;;;;7.43;2.93;;;;;;;13.21;52.25;99637.78;7419063;39;20235;31
2023/05/25 01:06:11;;;;;;;5.50;2.90;;;;;;;13.18;52.70;99643.56;7421351;39;20329;31
2023/05/25 01:11:46;;;;;;;7.83;3.30;;;;;;;13.25;52.45;99655.38;7398427;39;20248;31
2023/05/25 01:17:22;;;;;;;7.13;3.00;;;;;;;13.22;52.72;99654.88;7399265;39;20305;31
2023/05/25 01:22:58;;;;;;;7.97;3.47;;;;;;;13.13;52.51;99648.63;7442578;39;20265;31
2023/05/25 01:28:31;;;;;;;9.33;2.90;;;;;;;13.14;52.54;99653.03;7442032;39;20238;31
2023/05/25 01:34:06;;;;;;;8.33;2.83;;;;;;;13.08;52.94;99649.13;7436126;39;20245;31
2023/05/25 01:39:43;;;;;;;10.40;3.30;;;;;;;12.98;53.54;99647.62;7392703;39;20242;31
2023/05/25 01:45:16;;;;;;;8.15;3.50;;;;;;;13.03;53.67;99656.09;7422187;39;20247;31
2023/05/25 01:50:52;;;;;;;5.33;3.10;;;;;;;12.99;53.93;99655.56;7443070;39;20255;31
2023/05/25 01:56:26;;;;;;;8.37;3.00;;;;;;;12.86;53.86;99649.81;7447387;39;21323;31
2023/05/25 02:07:48;;;;;;;6.30;2.90;;;;;;;12.98;54.22;99658.44;7556159;38;21366;31
2023/05/25 02:18:29;;;;;;;8.30;3.30;;;;;;;12.78;54.83;99648.97;7556553;38;20244;31
2023/05/25 02:24:04;;;;;;;8.85;3.10;;;;;;;12.77;54.68;99641.91;7531112;38;20292;31
2023/05/25 02:29:39;;;;;;;9.90;3.55;;;;;;;12.67;55.20;99639.34;7484025;39;20311;31
2023/05/25 02:35:15;;;;;;;7.93;3.13;;;;;;;12.61;55.29;99640.03;7462347;39;20359;31
2023/05/25 02:40:35;;;;;;;7.47;3.00;;;;;;;12.58;55.58;99646.62;7400607;39;20255;31
2023/05/25 02:45:56;;;;;;;6.90;3.20;;;;;;;12.51;55.48;99640.19;7377830;39;20238;31
2023/05/25 02:51:32;;;;;;;8.40;3.10;;;;;;;12.36;57.47;99633.75;7404364;39;20369;31
2023/05/25 02:57:09;;;;;;;6.15;2.90;;;;;;;12.31;57.39;99643.37;7405885;39;20317;31
2023/05/25 03:02:29;;;;;;;7.83;3.37;;;;;;;12.20;57.37;99645.38;7446327;39;20251;31
2023/05/25 03:08:06;;;;;;;7.37;3.30;;;;;;;12.17;57.94;99644.88;7484930;38;20248;31
2023/05/25 03:13:26;;;;;;;6.60;3.24;;;;;;;12.15;57.63;99646.91;7558373;38;20310;31
2023/05/25 03:19:02;;;;;;;9.02;3.24;;;;;;;12.26;57.21;99649.28;7560590;38;20240;31
2023/05/25 03:24:40;;;;;;;8.60;2.90;;;;;;;12.23;57.07;99655.03;7554126;38;20345;31
2023/05/25 03:29:58;;;;;;;9.97;2.97;;;;;;;12.07;58.26;99660.38;7530176;38;20248;31
2023/05/25 03:35:34;;;;;;;9.93;3.27;;;;;;;12.06;58.33;99672.22;7464168;39;20278;31
2023/05/25 03:41:11;;;;;;;9.25;3.45;;;;;;;12.13;58.57;99670.53;7422154;39;20239;31
2023/05/25 03:46:46;;;;;;;7.77;3.83;;;;;;;12.02;57.81;99670.84;7410368;39;20225;31
2023/05/25 03:52:22;;;;;;;10.00;3.40;;;;;;;12.01;58.61;99682.66;7452622;38;20284;31
2023/05/25 03:57:58;;;;;;;9.87;3.80;;;;;;;11.99;58.71;99687.38;7490128;38;20257;31
2023/05/25 04:03:33;;;;;;;12.77;3.30;;;;;;;11.92;58.11;99687.19;7557900;38;20342;31
2023/05/25 04:09:08;;;;;;;9.03;3.37;;;;;;;12.04;58.51;99698.53;7507109;38;20326;31
2023/05/25 04:14:45;;;;;;;7.70;3.05;;;;;;;12.08;58.48;99695.34;7484013;39;20339;31
2023/05/25 04:20:05;;;;;;;7.05;3.20;;;;;;;12.12;58.46;99693.16;7484007;39;20284;31
2023/05/25 04:30:46;;;;;;;8.80;3.40;;;;;;;12.05;58.92;99694.84;7463036;39;20276;31
2023/05/25 04:41:11;;;;;;;7.77;3.37;;;;;;;12.04;59.11;99702.09;7507560;38;20262;31
2023/05/25 04:51:52;;;;;;;14.77;3.80;;;;;;;12.08;59.09;99710.72;7510055;38;20254;31
2023/05/25 04:57:26;;;;;;;9.07;3.23;;;;;;;12.13;58.51;99711.06;7296575;39;20237;31
2023/05/25 05:02:44;;;;;;;8.63;3.23;;;;;;;12.15;58.82;99714.47;7536112;38;20245;31
2023/05/25 05:08:20;;;;;;;12.43;3.77;;;;;;;12.17;59.35;99717.84;7462780;39;20257;31
2023/05/25 05:13:55;;;;;;;11.40;3.70;;;;;;;12.33;58.89;99723.28;7420683;39;20254;31
2023/05/25 05:19:15;;;;;;;8.93;2.80;;;;;;;12.47;57.53;99728.06;7380613;39;20370;31
2023/05/25 05:29:56;;;;;;;9.32;3.30;;;;;;;12.61;58.16;99740.09;7440282;39;20269;31
2023/05/25 05:40:21;;;;;;;12.30;3.60;;;;;;;12.88;57.99;99738.94;7465408;39;20302;31
2023/05/25 05:50:58;;;;;;;8.43;2.85;;;;;;;13.06;57.06;99755.88;7461323;39;20269;31
2023/05/25 05:56:33;;;;;;;12.00;3.63;;;;;;;13.18;57.35;99757.25;7443860;39;20253;31
2023/05/25 06:02:08;;;;;;;13.20;4.80;;;;;;;13.40;56.27;99761.12;7380745;39;20319;31
2023/05/25 06:07:44;;;;;;;7.20;2.80;;;;;;;13.39;56.62;99767.53;7382558;39;20259;31
2023/05/25 06:13:17;;;;;;;17.23;3.50;;;;;;;13.57;56.76;99768.19;7403424;39;20371;31
2023/05/25 06:18:52;;;;;;;9.40;3.50;;;;;;;13.74;56.74;99775.28;7390349;39;21104;31
2023/05/25 06:24:26;;;;;;;13.97;3.70;;;;;;;13.92;55.37;99775.06;7408181;39;20274;31
2023/05/25 06:29:46;;;;;;;6.55;3.00;;;;;;;14.05;55.37;99780.78;7404480;39;20338;31
2023/05/25 06:35:23;;;;;;;8.90;3.80;;;;;;;14.23;55.29;99780.56;7449244;39;20252;31
2023/05/25 06:41:02;;;;;;;10.83;4.10;;;;;;;14.25;55.52;99786.66;7529515;38;20248;31
2023/05/25 06:46:35;;;;;;;10.20;4.10;;;;;;;14.53;55.77;99797.91;7533212;38;20249;31
2023/05/25 06:51:56;;;;;;;12.60;3.43;;;;;;;14.66;55.02;99792.75;7513810;38;20254;31
2023/05/25 06:57:32;;;;;;;9.07;3.70;;;;;;;14.80;55.60;99781.13;7537478;38;20233;31
2023/05/25 07:02:53;;;;;;;12.00;3.90;;;;;;;14.92;55.34;99793.25;7529332;38;20246;31
2023/05/25 07:08:14;;;;;;;7.55;3.60;;;;;;;15.18;55.18;99793.75;7527656;38;20358;31
2023/05/25 07:13:49;;;;;;;10.88;3.96;;;;;;;15.43;55.02;99778.13;7527221;38;20338;31
2023/05/25 07:19:10;;;;;;;11.55;4.10;;;;;;;15.55;55.28;99786.69;7423169;39;20242;31
2023/05/25 07:24:31;;;;;;;11.27;3.80;;;;;;;15.68;54.95;99795.06;7426110;39;20359;31
2023/05/25 07:30:07;;;;;;;9.10;3.70;;;;;;;15.63;54.74;99783.88;7465526;39;20242;31
2023/05/25 07:35:28;;;;;;;10.90;4.05;;;;;;;15.86;54.51;99792.00;7442974;39;20337;31
2023/05/25 07:41:03;;;;;;;10.13;4.20;;;;;;;15.98;53.67;99780.47;7450415;38;20352;31
2023/05/25 07:46:40;;;;;;;7.50;4.25;;;;;;;16.22;54.26;99785.63;7442441;39;20452;31
2023/05/25 07:57:20;;;;;;;9.33;3.57;;;;;;;16.51;52.43;99801.06;7541377;38;20260;31
2023/05/25 08:02:55;;;;;;;8.40;3.50;;;;;;;16.57;51.85;99794.03;7485791;38;20252;31
2023/05/25 08:08:16;;;;;;;10.80;4.20;;;;;;;16.68;52.52;99788.13;7509653;38;20255;31
2023/05/25 08:13:51;;;;;;;13.00;3.70;;;;;;;17.01;51.09;99789.34;7490095;38;20371;31
2023/05/25 08:19:29;;;;;;;10.00;3.60;;;;;;;17.12;51.40;99790.69;7438933;39;20270;31
2023/05/25 08:24:48;;;;;;;8.90;4.00;;;;;;;17.39;50.90;99786.34;7422659;39;20309;31
2023/05/25 08:30:24;;;;;;;11.15;3.80;;;;;;;17.50;50.74;99783.97;7444555;39;21490;31
2023/05/25 08:36:00;;;;;;;7.43;3.87;;;;;;;17.70;50.19;99786.88;7464460;39;20389;31
2023/05/25 08:41:35;;;;;;;14.35;4.20;;;;;;;18.00;50.39;99790.22;7428527;38;20242;31
2023/05/25 08:47:10;;;;;;;7.47;3.53;;;;;;;18.18;49.52;99792.44;7487826;38;20422;31
2023/05/25 08:52:46;;;;;;;11.25;3.60;;;;;;;18.37;48.92;99794.44;7439737;39;20492;31
2023/05/25 09:03:25;;;;;;;9.10;3.90;;;;;;;18.68;48.80;99800.28;7486270;38;20260;31
2023/05/25 09:14:05;;;;;;;9.70;4.00;;;;;;;18.86;47.62;99810.66;7462734;39;20450;31
2023/05/25 09:24:44;;;;;;;10.95;4.12;;;;;;;19.10;47.44;99812.81;7436954;39;20283;31
2023/05/25 09:35:23;;;;;;;11.90;4.40;;;;;;;19.51;46.90;99822.81;7500917;38;20356;31
2023/05/25 09:46:02;;;;;;;12.90;4.60;;;;;;;19.63;46.83;99815.66;7506394;38;20280;31
2023/05/25 09:56:40;;;;;;;11.04;4.50;;;;;;;19.91;45.41;99801.78;7476723;38;20351;31
2023/05/25 10:02:15;;;;;;;8.73;3.77;;;;;;;20.11;45.22;99808.03;7464788;39;20250;31
2023/05/25 10:07:51;;;;;;;8.50;3.90;;;;;;;20.33;45.70;99809.50;7430055;39;20440;31
2023/05/25 10:13:26;;;;;;;11.10;4.37;;;;;;;20.54;45.45;99802.91;7402178;39;20342;31
2023/05/25 10:19:02;;;;;;;10.50;4.00;;;;;;;20.66;44.63;99812.16;7370656;39;20255;31
2023/05/25 10:24:37;;;;;;;9.73;3.67;;;;;;;20.68;44.01;99808.13;7390709;39;20393;31
2023/05/25 10:30:13;;;;;;;7.60;3.80;;;;;;;20.82;43.77;99822.62;7400756;39;20255;31
2023/05/25 10:35:48;;;;;;;7.27;3.33;;;;;;;20.91;44.03;99817.72;7359269;39;20286;31
2023/05/25 10:41:23;;;;;;;9.43;3.63;;;;;;;21.07;42.12;99817.22;7382769;39;20283;31
2023/05/25 10:46:59;;;;;;;7.72;4.03;;;;;;;21.19;43.16;99811.91;7463395;39;20238;31
2023/05/25 10:52:34;;;;;;;8.43;4.20;;;;;;;21.34;42.67;99806.97;7510510;38;20258;31
2023/05/25 10:58:21;;;;;;;7.60;4.10;;;;;;;21.56;42.30;99789.91;7538145;38;21316;31
2023/05/25 11:04:04;;;;;;;9.95;3.78;;;;;;;21.69;41.82;99807.31;7533443;38;21305;31
2023/05/25 11:09:39;;;;;;;10.60;4.45;;;;;;;21.69;41.69;99799.94;7506679;38;20248;31
2023/05/25 11:15:22;;;;;;;9.30;4.17;;;;;;;21.73;42.29;99801.16;7501975;38;20241;31
2023/05/25 11:20:56;;;;;;;6.93;3.78;;;;;;;21.73;41.85;99801.16;7421573;39;20258;31
2023/05/25 11:26:31;;;;;;;10.67;3.93;;;;;;;21.86;41.45;99803.81;7338976;39;20325;31
2023/05/25 11:32:06;;;;;;;9.40;3.77;;;;;;;22.07;40.85;99797.13;7332675;39;20394;31
2023/05/25 11:37:43;;;;;;;7.60;3.70;;;;;;;22.18;41.00;99796.34;7405388;39;20344;31
2023/05/25 11:43:14;;;;;;;8.50;4.10;;;;;;;22.27;40.67;99799.62;7189307;39;20337;31
2023/05/25 11:48:49;;;;;;;7.25;3.80;;;;;;;22.46;40.43;99791.19;7420370;39;20265;31
2023/05/25 11:54:25;;;;;;;11.27;4.00;;;;;;;22.45;40.76;99783.16;7428920;39;20231;31
2023/05/25 12:00:05;;;;;;;6.75;3.95;;;;;;;22.52;40.42;99785.81;7466939;39;20246;31
2023/05/25 12:05:22;;;;;;;9.00;3.75;;;;;;;22.66;41.23;99776.34;7381075;39;20243;31
2023/05/25 12:11:02;;;;;;;8.40;4.12;;;;;;;22.68;40.42;99775.06;7380920;39;20324;31
2023/05/25 12:16:39;;;;;;;7.95;4.20;;;;;;;22.82;39.85;99771.09;7357454;39;20384;31
2023/05/25 12:22:13;;;;;;;11.35;4.20;;;;;;;22.72;38.91;99776.31;7435923;39;20238;31
2023/05/25 12:27:50;;;;;;;6.57;3.92;;;;;;;22.72;39.26;99767.22;7428338;39;20252;31
2023/05/25 12:33:24;;;;;;;8.40;3.97;;;;;;;22.70;38.22;99761.09;7420197;39;20241;31
2023/05/25 12:39:12;;;;;;;6.90;3.57;;;;;;;22.79;38.74;99766.06;7422046;39;20382;31
2023/05/25 12:44:48;;;;;;;8.23;3.60;;;;;;;22.91;38.42;99769.69;7359328;39;20233;31
2023/05/25 12:50:26;;;;;;;8.34;3.78;;;;;;;22.98;39.11;99780.63;7360776;39;20307;31
2023/05/25 12:56:02;;;;;;;5.50;3.35;;;;;;;23.11;38.31;99769.44;7375354;39;20243;31
2023/05/25 13:01:38;;;;;;;7.86;3.90;;;;;;;23.32;37.96;99765.28;7399781;39;20270;31
2023/05/25 13:07:13;;;;;;;5.72;3.70;;;;;;;23.36;37.80;99766.50;7411876;38;20249;31
2023/05/25 13:12:49;;;;;;;8.77;3.90;;;;;;;23.43;38.91;99769.16;7392202;39;20262;31
2023/05/25 13:18:25;;;;;;;6.48;4.18;;;;;;;23.50;38.00;99765.25;7403505;39;20239;31
2023/05/25 13:23:46;;;;;;;9.80;3.92;;;;;;;23.70;38.68;99768.50;7358586;39;20366;31
2023/05/25 13:29:18;;;;;;;6.25;3.40;;;;;;;23.59;38.97;99769.34;7380432;39;20257;31
2023/05/25 13:34:58;;;;;;;6.93;3.40;;;;;;;23.68;38.13;99751.41;7390034;39;20360;31
2023/05/25 13:45:33;;;;;;;7.30;3.70;;;;;;;23.73;37.44;99753.44;7421362;39;20333;31
2023/05/25 13:51:09;;;;;;;7.35;3.75;;;;;;;23.65;38.08;99745.53;7459811;38;20264;31
2023/05/25 13:56:44;;;;;;;7.53;3.90;;;;;;;23.67;37.86;99746.97;7483477;38;20254;31
2023/05/25 14:02:19;;;;;;;6.85;3.85;;;;;;;23.51;37.60;99738.56;7466099;39;20314;31
2023/05/25 14:07:57;;;;;;;9.16;3.68;;;;;;;23.64;37.98;99741.09;7443137;39;20315;31
2023/05/25 14:13:16;;;;;;;6.43;3.70;;;;;;;23.76;38.90;99733.69;7409143;39;20360;31
2023/05/25 14:18:36;;;;;;;5.75;3.40;;;;;;;23.82;37.74;99745.66;7439805;39;20424;31
2023/05/25 14:24:11;;;;;;;6.05;3.58;;;;;;;23.74;37.80;99730.31;7481665;38;20233;31
2023/05/25 14:29:46;;;;;;;7.72;3.47;;;;;;;23.73;38.55;99725.91;7506505;38;20253;31
2023/05/25 14:35:07;;;;;;;6.52;3.56;;;;;;;23.82;38.29;99730.00;7463925;39;20238;31
2023/05/25 14:40:44;;;;;;;5.95;3.70;;;;;;;23.84;37.03;99718.72;7424394;39;20239;31
2023/05/25 14:46:19;;;;;;;5.53;3.78;;;;;;;23.90;38.09;99715.00;7422970;39;20249;31
2023/05/25 14:51:40;;;;;;;5.65;3.65;;;;;;;23.94;38.15;99711.53;7474997;39;20246;31
2023/05/25 14:57:17;;;;;;;4.55;3.70;;;;;;;23.88;38.13;99725.41;7506361;38;20341;31
2023/05/25 15:02:51;;;;;;;6.60;3.80;;;;;;;23.87;38.80;99732.84;7465708;39;20541;31
2023/05/25 15:13:32;;;;;;;7.32;3.70;;;;;;;23.98;37.70;99722.91;7485742;38;20272;31
2023/05/25 15:23:56;;;;;;;7.70;3.80;;;;;;;24.22;37.67;99728.16;7534679;38;20259;31
2023/05/25 15:34:35;;;;;;;7.30;3.75;;;;;;;24.20;38.16;99729.50;7556453;38;20276;31
2023/05/25 15:44:58;;;;;;;5.90;3.50;;;;;;;24.15;38.20;99718.34;7504133;38;20330;31
2023/05/25 15:55:39;;;;;;;5.53;3.83;;;;;;;24.00;38.12;99716.06;7500419;38;20256;31
2023/05/25 16:06:18;;;;;;;7.30;3.60;;;;;;;23.91;37.58;99708.44;7440875;39;20294;31
2023/05/25 16:16:58;;;;;;;5.28;3.60;;;;;;;23.97;37.68;99710.19;7445603;39;20647;31
2023/05/25 16:22:18;;;;;;;5.80;3.70;;;;;;;24.02;36.87;99711.16;7462023;39;20253;31
2023/05/25 16:33:09;;;;;;;5.65;3.60;;;;;;;23.80;37.51;99712.84;7504637;38;20261;31
2023/05/25 16:38:29;;;;;;;5.64;3.42;;;;;;;23.77;37.04;99710.59;7433431;39;20232;31
2023/05/25 16:44:04;;;;;;;6.00;3.40;;;;;;;23.62;37.67;99711.06;7463691;39;20253;31
2023/05/25 16:49:40;;;;;;;8.63;3.53;;;;;;;23.46;38.25;99694.41;7424594;39;20291;31
2023/05/25 16:55:15;;;;;;;4.22;3.47;;;;;;;23.33;39.11;99707.28;7438909;39;20312;31
2023/05/25 17:00:35;;;;;;;5.05;3.50;;;;;;;23.28;38.87;99703.56;7425945;39;20320;31
2023/05/25 17:06:12;;;;;;;6.80;3.40;;;;;;;23.05;38.73;99703.50;7430773;39;20257;31
2023/05/25 17:11:32;;;;;;;5.10;3.10;;;;;;;22.99;39.46;99709.97;7418492;39;20389;31
2023/05/25 17:17:05;;;;;;;5.56;3.70;;;;;;;22.79;39.69;99710.25;7374396;39;20420;31
2023/05/25 17:22:41;;;;;;;7.37;4.00;;;;;;;22.62;40.61;99709.19;7401948;39;20314;31
2023/05/25 17:28:16;;;;;;;4.45;3.60;;;;;;;22.46;40.55;99710.66;7405545;39;20235;31
2023/05/25 17:33:51;;;;;;;6.40;3.90;;;;;;;22.45;40.83;99707.09;7430286;39;20250;31
2023/05/25 17:39:27;;;;;;;5.50;3.60;;;;;;;22.32;40.72;99703.66;7485671;38;20249;31
2023/05/25 17:44:47;;;;;;;4.80;3.90;;;;;;;22.25;41.66;99708.38;7443630;39;21434;31
2023/05/25 17:55:28;;;;;;;5.65;3.45;;;;;;;22.09;41.96;99698.00;7501533;38;20273;31
2023/05/25 18:00:47;;;;;;;5.10;3.60;;;;;;;22.04;41.93;99706.94;7429329;39;20235;31
2023/05/25 18:06:22;;;;;;;5.67;3.73;;;;;;;21.89;42.33;99712.78;7444509;39;20345;31
2023/05/25 18:11:58;;;;;;;6.65;3.30;;;;;;;21.78;42.85;99709.94;7462920;39;20316;31
2023/05/25 18:17:33;;;;;;;6.43;3.40;;;;;;;21.69;42.86;99719.50;7440704;39;20364;31
2023/05/25 18:28:14;;;;;;;8.70;4.30;;;;;;;21.57;43.59;99714.78;7464156;39;20312;31
2023/05/25 18:33:49;;;;;;;7.53;3.75;;;;;;;21.49;43.41;99726.03;7464843;39;20252;31
2023/05/25 18:39:10;;;;;;;6.18;3.90;;;;;;;21.42;44.25;99725.25;7466585;39;20249;31
2023/05/25 18:44:46;;;;;;;6.65;4.15;;;;;;;21.25;44.10;99726.84;7464861;39;20338;31
2023/05/25 18:50:09;;;;;;;7.12;3.87;;;;;;;21.20;44.04;99737.66;7478088;38;20238;31
2023/05/25 18:55:43;;;;;;;6.10;3.60;;;;;;;21.03;43.75;99733.72;7257348;39;20316;31
2023/05/25 19:01:20;;;;;;;5.25;3.72;;;;;;;20.97;44.53;99742.84;7467728;39;20265;31
2023/05/25 19:06:40;;;;;;;6.96;3.60;;;;;;;20.96;45.27;99750.25;7423294;39;20231;31
2023/05/25 19:12:02;;;;;;;6.70;4.07;;;;;;;20.86;45.45;99751.75;7411548;39;20242;31
2023/05/25 19:17:37;;;;;;;7.90;3.62;;;;;;;20.72;45.37;99755.63;7423005;39;20349;31
2023/05/25 19:23:12;;;;;;;5.93;3.67;;;;;;;20.60;45.64;99758.22;7366997;39;20353;31
2023/05/25 19:28:47;;;;;;;5.68;4.20;;;;;;;20.38;46.69;99771.38;7369060;39;20312;31
2023/05/25 19:34:23;;;;;;;5.25;3.60;;;;;;;20.17;47.13;99766.13;7346126;39;20267;31
2023/05/25 19:45:04;;;;;;;6.18;3.80;;;;;;;19.97;47.45;99779.84;7376199;39;20258;31
2023/05/25 19:50:40;;;;;;;7.80;4.10;;;;;;;19.98;48.52;99788.91;7402610;39;20299;31
2023/05/25 19:56:16;;;;;;;6.77;3.70;;;;;;;19.91;47.88;99788.94;7370994;39;20254;31
2023/05/25 20:01:37;;;;;;;6.93;4.15;;;;;;;19.87;48.25;99800.50;7465477;39;20312;31
2023/05/25 20:07:12;;;;;;;8.77;4.67;;;;;;;19.80;48.21;99798.59;7468431;39;20317;31
2023/05/25 20:12:47;;;;;;;7.12;4.20;;;;;;;19.73;48.46;99803.25;7402622;39;20254;31
2023/05/25 20:18:23;;;;;;;7.55;4.30;;;;;;;19.61;48.03;99807.69;7422577;39;20239;31
2023/05/25 20:24:00;;;;;;;8.15;4.32;;;;;;;19.49;49.09;99803.84;7421495;39;20239;31
2023/05/25 20:29:37;;;;;;;8.45;4.45;;;;;;;19.43;49.87;99803.84;7402928;39;20261;31
2023/05/25 20:34:57;;;;;;;6.95;4.75;;;;;;;19.34;49.73;99811.41;7420933;39;20254;31
2023/05/25 20:40:30;;;;;;;6.53;4.40;;;;;;;19.17;49.73;99800.03;7466426;39;20256;31
2023/05/25 20:45:51;;;;;;;9.13;4.60;;;;;;;19.19;49.69;99808.00;7386156;39;20243;31
2023/05/25 20:51:11;;;;;;;8.70;4.60;;;;;;;19.10;49.10;99814.69;7411936;39;20303;31
2023/05/25 20:56:49;;;;;;;8.73;4.37;;;;;;;19.04;49.93;99824.59;7373840;39;20239;31
2023/05/25 21:02:24;;;;;;;7.50;4.30;;;;;;;18.94;49.02;99821.41;7400441;39;20235;31
2023/05/25 21:08:00;;;;;;;6.60;4.30;;;;;;;18.85;49.40;99823.47;7418575;39;20253;31
2023/05/25 21:13:36;;;;;;;8.27;4.47;;;;;;;18.77;49.99;99820.06;7476582;39;20281;31
2023/05/25 21:18:56;;;;;;;7.33;4.90;;;;;;;18.73;50.18;99830.56;7485699;39;21067;31
2023/05/25 21:24:16;;;;;;;9.47;4.50;;;;;;;18.65;50.77;99830.72;7484710;39;20312;31
2023/05/25 21:29:53;;;;;;;6.70;4.50;;;;;;;18.62;50.34;99833.87;7422824;39;20289;31
2023/05/25 21:35:27;;;;;;;7.60;4.80;;;;;;;18.59;50.50;99833.44;7422925;39;20227;31
2023/05/25 21:40:48;;;;;;;8.70;4.90;;;;;;;18.64;50.30;99837.25;7449534;39;20257;31
2023/05/25 21:46:24;;;;;;;10.43;4.70;;;;;;;18.57;51.44;99841.81;7432065;39;20418;31
2023/05/25 21:51:59;;;;;;;7.67;4.50;;;;;;;18.52;52.00;99843.47;7402314;39;20242;31
2023/05/25 21:57:19;;;;;;;5.90;4.10;;;;;;;18.50;51.91;99856.44;7380732;39;20258;31
2023/05/25 22:02:55;;;;;;;7.60;4.40;;;;;;;18.45;51.91;99848.87;7358443;39;20260;31
2023/05/25 22:08:31;;;;;;;9.17;4.60;;;;;;;18.41;51.34;99859.34;7386072;39;20254;31
2023/05/25 22:14:05;;;;;;;6.55;4.05;;;;;;;18.32;51.83;99860.53;7442146;39;20257;31
2023/05/25 22:19:42;;;;;;;8.50;4.40;;;;;;;18.33;52.65;99858.66;7452148;39;20237;31
2023/05/25 22:25:18;;;;;;;7.20;4.35;;;;;;;18.17;52.34;99861.69;7484326;38;20366;31
2023/05/25 22:35:58;;;;;;;8.40;4.40;;;;;;;18.07;53.17;99877.59;7506872;38;20539;31
2023/05/25 22:46:38;;;;;;;6.30;3.80;;;;;;;18.08;52.09;99884.72;7516771;38;20269;31
2023/05/25 22:52:15;;;;;;;8.07;4.17;;;;;;;17.97;52.88;99878.75;7512908;38;20255;31
2023/05/25 22:57:50;;;;;;;8.17;4.43;;;;;;;17.85;53.41;99880.34;7512893;38;20241;31
2023/05/25 23:03:25;;;;;;;5.87;3.97;;;;;;;17.73;53.80;99878.31;7489247;38;20241;31
2023/05/25 23:09:02;;;;;;;8.27;4.30;;;;;;;17.69;53.97;99880.59;7511973;38;20291;31
2023/05/25 23:14:22;;;;;;;7.10;4.13;;;;;;;17.60;53.78;99886.37;7465559;39;20238;31
2023/05/25 23:19:44;;;;;;;6.23;4.00;;;;;;;17.54;54.43;99882.53;7442062;39;20351;31
2023/05/25 23:30:24;;;;;;;10.56;4.38;;;;;;;17.38;54.77;99890.94;7448257;39;20280;31
2023/05/25 23:35:59;;;;;;;8.53;4.67;;;;;;;17.30;54.80;99886.47;7429569;39;20245;31
2023/05/25 23:41:34;;;;;;;12.60;4.57;;;;;;;17.18;55.41;99884.44;7419700;39;20245;31
2023/05/25 23:47:10;;;;;;;7.00;4.35;;;;;;;17.06;56.82;99884.97;7403371;39;20478;31
2023/05/25 23:52:31;;;;;;;7.70;4.20;;;;;;;17.05;55.75;99898.75;7423343;39;20239;31
2023/05/25 23:57:51;;;;;;;7.77;4.33;;;;;;;17.02;56.30;99899.16;7452349;39;20272;31
